Time;durP1;ratioP1;P1;durP2;ratioP2;P2;SDS_P1;SDS_P2;PMS_P1;PMS_P2;Temp;Humidity;BMP_temperature;BMP_pressure;BME280_temperature;BME280_humidity;BME280_pressure;Samples;Min_cycle;Max_cycle;Signal;HPM_P1;HPM_P2
2021/08/28 00:00:19;;;;;;;3.25;2.95;;;;;;;15.10;78.87;99274.65;1696490;82;21050;-53
2021/08/28 00:02:45;;;;;;;3.30;3.10;;;;;;;15.13;78.89;99273.56;1710025;80;21069;-53
2021/08/28 00:05:12;;;;;;;3.30;2.77;;;;;;;15.15;78.90;99279.22;1735289;80;21144;-53
2021/08/28 00:07:39;;;;;;;3.75;3.17;;;;;;;15.18;78.92;99273.20;1735160;80;20958;-53
2021/08/28 00:10:06;;;;;;;3.30;3.00;;;;;;;15.19;78.89;99274.45;1739380;80;20979;-53
2021/08/28 00:12:35;;;;;;;4.60;2.87;;;;;;;15.21;78.96;99273.86;1744942;80;21013;-53
2021/08/28 00:15:01;;;;;;;3.98;3.65;;;;;;;15.23;79.05;99268.30;1741224;80;21037;-53
2021/08/28 00:17:33;;;;;;;2.80;2.60;;;;;;;15.26;79.23;99273.50;1743270;80;21582;-53
2021/08/28 00:19:56;;;;;;;4.65;2.30;;;;;;;15.29;79.44;99278.70;1740213;80;20983;-53
2021/08/28 00:22:22;;;;;;;2.70;2.50;;;;;;;15.31;79.46;99274.88;1744527;80;21514;-53
2021/08/28 00:24:49;;;;;;;3.75;2.62;;;;;;;15.34;79.42;99274.66;1741676;80;21567;-53
2021/08/28 00:27:15;;;;;;;7.22;2.62;;;;;;;15.37;79.41;99278.98;1740465;80;21477;-53
2021/08/28 00:29:41;;;;;;;5.17;3.83;;;;;;;15.39;79.33;99268.91;1740329;80;21593;-53
2021/08/28 00:32:08;;;;;;;5.33;3.22;;;;;;;15.39;79.28;99268.41;1742234;80;21033;-52
2021/08/28 00:34:34;;;;;;;5.70;3.20;;;;;;;15.40;79.28;99273.31;1741076;80;21108;-52
2021/08/28 00:37:01;;;;;;;4.25;3.30;;;;;;;15.40;79.27;99268.76;1744544;80;21111;-52
2021/08/28 00:39:27;;;;;;;3.15;2.33;;;;;;;15.41;79.27;99261.48;1741920;80;21029;-52
2021/08/28 00:41:54;;;;;;;3.47;3.25;;;;;;;15.43;79.32;99262.25;1737715;80;22428;-52
2021/08/28 00:44:20;;;;;;;3.98;3.72;;;;;;;15.45;79.47;99253.52;1743186;80;21515;-52
2021/08/28 00:46:49;;;;;;;4.85;3.00;;;;;;;15.48;79.63;99238.37;1712674;80;21103;-52
2021/08/28 00:49:16;;;;;;;5.85;3.40;;;;;;;15.51;79.77;99231.34;1742805;80;20965;-52
2021/08/28 00:51:42;;;;;;;4.58;3.85;;;;;;;15.54;79.83;99237.93;1744817;80;21284;-52
2021/08/28 00:54:08;;;;;;;6.15;4.40;;;;;;;15.55;79.94;99240.15;1747080;80;21085;-52
2021/08/28 00:56:35;;;;;;;9.55;3.77;;;;;;;15.55;80.05;99246.44;1745880;80;20902;-52
2021/08/28 00:59:01;;;;;;;5.83;4.87;;;;;;;15.55;80.12;99245.09;1744527;80;20922;-52
2021/08/28 01:01:33;;;;;;;9.73;5.05;;;;;;;15.56;80.13;99251.38;1745236;80;20918;-52
2021/08/28 01:04:00;;;;;;;3.92;3.62;;;;;;;15.56;80.14;99249.53;1745080;80;20934;-52
2021/08/28 01:06:48;;;;;;;4.25;3.85;;;;;;;15.57;80.18;99244.45;1681886;82;21496;-52
2021/08/28 01:09:26;;;;;;;4.15;3.77;;;;;;;15.59;80.17;99241.63;1703548;80;21022;-52
2021/08/28 01:12:07;;;;;;;4.35;3.95;;;;;;;15.58;80.23;99238.54;1684991;82;20903;-52
2021/08/28 01:14:40;;;;;;;3.87;2.67;;;;;;;15.59;80.25;99233.00;1732658;80;20967;-52
2021/08/28 01:17:09;;;;;;;5.12;3.72;;;;;;;15.59;80.17;99230.29;1733942;80;21049;-52
2021/08/28 01:19:41;;;;;;;4.08;3.42;;;;;;;15.60;80.13;99227.09;1735196;80;21445;-52
2021/08/28 01:22:12;;;;;;;4.67;4.37;;;;;;;15.60;80.15;99227.95;1736338;80;21041;-52
2021/08/28 01:24:46;;;;;;;4.65;4.25;;;;;;;15.62;80.03;99234.62;1729437;80;27631;-52
2021/08/28 01:27:27;;;;;;;4.85;4.47;;;;;;;15.61;79.97;99246.45;1733523;80;20963;-52
2021/08/28 01:29:54;;;;;;;5.35;5.05;;;;;;;15.60;79.99;99261.86;1733228;80;20931;-52
2021/08/28 01:32:21;;;;;;;5.10;3.35;;;;;;;15.60;79.99;99263.70;1735282;80;21266;-52
2021/08/28 01:34:48;;;;;;;4.35;3.92;;;;;;;15.60;79.94;99265.06;1734199;80;20892;-52
2021/08/28 01:37:15;;;;;;;2.98;2.65;;;;;;;15.61;79.85;99275.80;1740035;80;20916;-53
2021/08/28 01:39:45;;;;;;;5.65;3.87;;;;;;;15.61;79.72;99267.66;1704510;82;20975;-52
2021/08/28 01:42:14;;;;;;;3.15;2.95;;;;;;;15.62;79.59;99263.98;1735141;80;20988;-53
2021/08/28 01:44:47;;;;;;;3.17;2.85;;;;;;;15.63;79.53;99256.22;1717719;80;22356;-52
2021/08/28 01:47:15;;;;;;;4.60;3.25;;;;;;;15.68;79.43;99257.20;1734860;80;21653;-52
2021/08/28 01:49:44;;;;;;;4.10;3.80;;;;;;;15.68;79.31;99248.57;1714327;80;21113;-53
2021/08/28 01:52:10;;;;;;;5.35;3.62;;;;;;;15.71;79.30;99237.98;1709735;80;20871;-52
2021/08/28 01:54:40;;;;;;;5.33;4.85;;;;;;;15.72;79.12;99237.00;1733708;80;20959;-52
2021/08/28 01:57:09;;;;;;;5.17;4.62;;;;;;;15.74;78.93;99231.81;1732927;80;21137;-52
2021/08/28 01:59:38;;;;;;;9.03;3.55;;;;;;;15.75;78.79;99231.32;1732838;80;21154;-52
2021/08/28 02:02:22;;;;;;;3.30;3.00;;;;;;;15.76;78.68;99224.91;1736733;80;20908;-52
2021/08/28 02:04:50;;;;;;;4.47;3.87;;;;;;;15.76;78.62;99221.71;1734015;80;21051;-52
2021/08/28 02:08:03;;;;;;;4.50;3.55;;;;;;;15.78;78.59;99227.89;1737327;80;21510;-52
2021/08/28 02:10:35;;;;;;;3.67;3.37;;;;;;;15.82;78.55;99223.10;1735504;80;21365;-52
2021/08/28 02:13:04;;;;;;;4.30;3.95;;;;;;;15.83;78.40;99225.67;1733514;80;21135;-52
2021/08/28 02:15:35;;;;;;;5.58;4.30;;;;;;;15.83;78.27;99229.74;1733453;80;21613;-52
2021/08/28 02:18:11;;;;;;;5.55;4.37;;;;;;;15.83;78.26;99220.73;1735671;80;20920;-52
2021/08/28 02:20:41;;;;;;;4.65;4.30;;;;;;;15.82;78.18;99206.30;1693806;82;21134;-52
2021/08/28 02:23:12;;;;;;;5.47;5.08;;;;;;;15.81;78.08;99192.38;1731836;80;21778;-52
2021/08/28 02:26:08;;;;;;;7.12;4.53;;;;;;;15.80;77.98;99196.08;1739737;80;21125;-51
2021/08/28 02:28:49;;;;;;;4.15;3.75;;;;;;;15.80;77.87;99194.72;1696352;82;21101;-52
2021/08/28 02:31:18;;;;;;;5.03;3.40;;;;;;;15.80;77.86;99192.50;1672339;83;21078;-52
2021/08/28 02:33:46;;;;;;;3.27;2.98;;;;;;;15.79;77.87;99201.13;1676223;83;20975;-53
2021/08/28 02:36:13;;;;;;;8.25;3.83;;;;;;;15.79;77.84;99204.33;1659713;83;21536;-53
2021/08/28 02:38:41;;;;;;;4.08;3.72;;;;;;;15.81;77.77;99205.09;1648062;83;22432;-52
2021/08/28 02:41:07;;;;;;;7.50;4.50;;;;;;;15.80;77.65;99193.86;1697301;82;21077;-52
2021/08/28 02:43:36;;;;;;;10.30;4.55;;;;;;;15.79;77.70;99186.20;1696326;82;21134;-52
2021/08/28 02:46:04;;;;;;;3.92;3.60;;;;;;;15.78;77.60;99174.11;1696653;82;21099;-52
2021/08/28 02:48:32;;;;;;;4.67;2.87;;;;;;;15.76;77.54;99169.28;1733304;80;21182;-53
2021/08/28 02:51:00;;;;;;;9.88;2.92;;;;;;;15.74;77.47;99182.97;1733389;80;21105;-52
2021/08/28 02:53:27;;;;;;;4.17;2.75;;;;;;;15.73;77.38;99191.25;1733569;80;21100;-52
2021/08/28 02:55:54;;;;;;;5.92;2.40;;;;;;;15.73;77.29;99199.39;1733446;80;21072;-50
2021/08/28 02:58:21;;;;;;;3.35;3.02;;;;;;;15.73;77.22;99208.41;1734262;80;21149;-51
2021/08/28 03:00:48;;;;;;;5.97;3.33;;;;;;;15.74;77.21;99220.95;1732372;80;22415;-51
2021/08/28 03:03:15;;;;;;;4.47;3.17;;;;;;;15.76;77.21;99212.21;1726420;80;21288;-51
2021/08/28 03:05:44;;;;;;;3.45;2.80;;;;;;;15.78;77.15;99200.75;1737057;80;21026;-51
2021/08/28 03:08:12;;;;;;;4.00;3.55;;;;;;;15.78;77.14;99196.69;1733924;80;21082;-51
2021/08/28 03:10:40;;;;;;;5.22;2.60;;;;;;;15.79;77.02;99186.70;1707848;80;21614;-51
2021/08/28 03:13:08;;;;;;;3.80;1.92;;;;;;;15.81;76.86;99188.80;1714988;80;20979;-52
2021/08/28 03:15:37;;;;;;;2.20;2.00;;;;;;;15.82;76.70;99186.47;1732734;80;21013;-52
2021/08/28 03:18:11;;;;;;;;;;;;;;;15.83;76.62;99191.75;1736196;80;21425;-52
2021/08/28 03:20:40;;;;;;;3.22;2.20;;;;;;;15.85;76.62;99192.98;1735672;80;20130;-52
2021/08/28 03:23:07;;;;;;;3.55;2.65;;;;;;;15.84;76.72;99193.48;1735686;80;21922;-52
2021/08/28 03:25:34;;;;;;;3.17;2.98;;;;;;;15.85;76.77;99199.28;1736288;80;21100;-52
2021/08/28 03:28:01;;;;;;;6.95;3.25;;;;;;;15.86;76.84;99201.51;1691044;80;20908;-52
2021/08/28 03:30:29;;;;;;;5.45;3.45;;;;;;;15.86;76.89;99204.22;1736322;80;20904;-52
2021/08/28 03:32:55;;;;;;;5.42;3.37;;;;;;;15.84;77.02;99201.63;1735821;80;20954;-51
2021/08/28 03:35:24;;;;;;;4.28;3.72;;;;;;;15.84;76.95;99202.98;1739641;80;20891;-52
2021/08/28 03:37:51;;;;;;;3.42;3.12;;;;;;;15.85;77.00;99214.21;1732957;80;21131;-52
2021/08/28 03:40:20;;;;;;;4.10;3.20;;;;;;;15.86;77.09;99214.59;1734047;80;21828;-51
2021/08/28 03:42:46;;;;;;;3.40;3.12;;;;;;;15.86;77.15;99212.36;1730293;80;21036;-51
2021/08/28 03:45:14;;;;;;;6.58;3.25;;;;;;;15.89;77.25;99219.78;1730870;80;21060;-51
2021/08/28 03:47:43;;;;;;;4.00;2.72;;;;;;;15.91;77.44;99216.92;1730268;80;22051;-51
2021/08/28 03:50:11;;;;;;;5.00;3.67;;;;;;;15.93;77.50;99220.39;1698633;82;21097;-52
2021/08/28 03:52:38;;;;;;;4.05;3.50;;;;;;;15.95;77.49;99214.84;1734984;80;21017;-51
2021/08/28 03:55:05;;;;;;;3.83;2.62;;;;;;;15.94;77.56;99205.84;1696619;82;21065;-52
2021/08/28 03:57:33;;;;;;;2.52;2.33;;;;;;;15.95;77.55;99216.20;1674886;83;20984;-52
2021/08/28 04:00:00;;;;;;;4.00;2.55;;;;;;;15.96;77.60;99206.59;1675339;83;21381;-51
2021/08/28 04:02:26;;;;;;;4.17;2.12;;;;;;;15.97;77.61;99216.95;1675735;83;21481;-52
2021/08/28 04:04:54;;;;;;;3.12;2.12;;;;;;;15.98;77.59;99229.55;1733148;80;20975;-52
2021/08/28 04:07:21;;;;;;;2.27;1.67;;;;;;;15.99;77.48;99228.56;1733189;80;21611;-52
2021/08/28 04:09:47;;;;;;;2.08;1.90;;;;;;;16.02;77.35;99229.17;1734014;80;21100;-52
2021/08/28 04:12:13;;;;;;;5.58;2.52;;;;;;;16.03;77.25;99228.68;1712025;82;21053;-52
2021/08/28 04:14:48;;;;;;;2.10;1.95;;;;;;;16.04;77.29;99214.13;1712829;82;21656;-52
2021/08/28 04:17:15;;;;;;;1.75;1.50;;;;;;;16.04;77.27;99224.98;1689405;82;21615;-52
2021/08/28 04:19:41;;;;;;;1.42;1.30;;;;;;;16.03;77.35;99221.41;1693502;82;21053;-52
2021/08/28 04:22:10;;;;;;;1.62;1.10;;;;;;;16.04;77.47;99228.56;1717359;82;21238;-52
2021/08/28 04:24:38;;;;;;;2.65;1.20;;;;;;;16.06;77.55;99227.09;1693240;82;21570;-53
2021/08/28 04:27:24;;;;;;;3.15;0.90;;;;;;;16.09;77.53;99224.11;1679119;84;21159;-52
2021/08/28 04:29:52;;;;;;;2.80;0.93;;;;;;;16.13;77.52;99225.62;1716100;81;21093;-52
2021/08/28 04:32:20;;;;;;;1.10;1.00;;;;;;;16.15;77.61;99229.95;1726555;80;21531;-53
2021/08/28 04:34:46;;;;;;;1.85;1.05;;;;;;;16.18;77.88;99229.69;1745784;80;21062;-53
2021/08/28 04:37:13;;;;;;;1.15;0.98;;;;;;;16.21;77.71;99240.80;1744904;80;21022;-53
2021/08/28 04:39:39;;;;;;;1.92;1.10;;;;;;;16.23;77.99;99238.84;1747904;80;21108;-53
2021/08/28 04:42:06;;;;;;;2.30;1.37;;;;;;;16.25;78.17;99243.62;1746577;80;21649;-53
2021/08/28 04:44:32;;;;;;;1.37;1.10;;;;;;;16.29;78.24;99241.06;1747026;80;21472;-53
2021/08/28 04:47:00;;;;;;;1.75;1.00;;;;;;;16.30;78.11;99241.92;1710675;82;21610;-53
2021/08/28 04:49:27;;;;;;;1.52;0.90;;;;;;;16.30;78.12;99240.56;1694270;83;21156;-53
2021/08/28 04:51:58;;;;;;;1.45;0.80;;;;;;;16.31;78.18;99236.87;1658568;83;21149;-53
2021/08/28 04:54:26;;;;;;;1.20;1.00;;;;;;;16.32;78.20;99237.24;1705867;82;21090;-53
2021/08/28 04:56:54;;;;;;;3.10;1.37;;;;;;;16.35;78.15;99243.27;1677308;82;21133;-53
2021/08/28 04:59:21;;;;;;;1.10;1.00;;;;;;;16.37;77.93;99239.95;1712223;82;21125;-53
2021/08/28 05:01:48;;;;;;;4.30;1.57;;;;;;;16.38;77.75;99236.25;1680235;83;21137;-52
2021/08/28 05:04:14;;;;;;;2.10;1.40;;;;;;;16.39;77.53;99240.70;1681390;83;21274;-52
2021/08/28 05:06:40;;;;;;;4.90;1.00;;;;;;;16.41;77.33;99239.23;1710882;82;21460;-52
2021/08/28 05:09:08;;;;;;;2.45;1.05;;;;;;;16.44;77.18;99234.39;1711982;82;21082;-52
2021/08/28 05:11:35;;;;;;;2.22;1.02;;;;;;;16.47;77.08;99236.00;1677001;83;21145;-51
2021/08/28 05:14:01;;;;;;;2.42;1.00;;;;;;;16.49;76.97;99233.55;1739685;80;21076;-51
2021/08/28 05:16:28;;;;;;;1.27;1.17;;;;;;;16.52;76.88;99240.07;1736690;80;21880;-52
2021/08/28 05:18:56;;;;;;;1.40;1.30;;;;;;;16.55;76.82;99247.12;1729632;80;21343;-52
2021/08/28 05:21:24;;;;;;;3.62;1.10;;;;;;;16.55;76.80;99247.98;1726344;80;21148;-51
2021/08/28 05:24:10;;;;;;;1.77;1.10;;;;;;;16.56;76.71;99238.84;1733743;80;21374;-51
2021/08/28 05:26:42;;;;;;;1.50;1.40;;;;;;;16.60;76.65;99232.16;1733739;80;21101;-51
2021/08/28 05:29:08;;;;;;;1.67;1.25;;;;;;;16.63;76.61;99234.67;1736822;80;21110;-51
2021/08/28 05:31:34;;;;;;;1.65;0.90;;;;;;;16.69;76.70;99246.02;1734260;80;21100;-51
2021/08/28 05:34:01;;;;;;;1.40;1.20;;;;;;;16.74;76.58;99250.61;1736640;80;20986;-51
2021/08/28 05:36:30;;;;;;;1.90;1.10;;;;;;;16.79;76.52;99251.08;1730066;80;21354;-52
2021/08/28 05:39:15;;;;;;;2.90;1.10;;;;;;;16.83;76.42;99243.93;1734477;80;21123;-52
2021/08/28 05:41:42;;;;;;;1.60;1.10;;;;;;;16.89;76.23;99247.50;1734255;80;21130;-52
2021/08/28 05:44:08;;;;;;;1.30;1.10;;;;;;;16.93;75.96;99239.94;1731944;80;21066;-50
2021/08/28 05:46:36;;;;;;;2.45;0.90;;;;;;;16.97;75.81;99235.49;1734984;80;21030;-50
2021/08/28 05:49:04;;;;;;;2.75;0.90;;;;;;;17.03;75.47;99236.34;1733835;80;21022;-51
2021/08/28 05:51:45;;;;;;;1.57;1.22;;;;;;;17.12;75.30;99240.64;1733804;80;21053;-52
2021/08/28 05:54:11;;;;;;;1.20;1.10;;;;;;;17.20;75.28;99234.06;1735517;80;21163;-52
2021/08/28 05:56:38;;;;;;;3.47;1.32;;;;;;;17.29;75.19;99237.38;1705130;82;20943;-49
2021/08/28 05:59:05;;;;;;;1.85;1.12;;;;;;;17.39;75.07;99241.06;1699609;82;21055;-51
2021/08/28 06:01:32;;;;;;;6.67;1.25;;;;;;;17.46;74.71;99242.76;1733003;80;21062;-51
2021/08/28 06:03:58;;;;;;;1.30;1.20;;;;;;;17.53;74.36;99250.77;1732784;80;21044;-51
2021/08/28 06:06:26;;;;;;;1.98;1.42;;;;;;;17.57;74.05;99254.97;1734338;80;23281;-51
2021/08/28 06:09:11;;;;;;;2.08;1.62;;;;;;;17.60;73.99;99261.03;1733596;80;21176;-52
2021/08/28 06:11:40;;;;;;;1.25;1.15;;;;;;;17.66;73.97;99257.81;1724153;80;21116;-52
2021/08/28 06:14:08;;;;;;;1.50;1.37;;;;;;;17.73;73.89;99263.59;1706599;82;22377;-53
2021/08/28 06:16:36;;;;;;;1.20;1.00;;;;;;;17.78;73.88;99257.77;1707423;82;21111;-52
2021/08/28 06:19:06;;;;;;;3.25;1.75;;;;;;;17.83;73.82;99255.01;1711115;82;21043;-52
2021/08/28 06:21:33;;;;;;;2.27;1.87;;;;;;;17.88;73.44;99250.52;1711620;82;21370;-52
2021/08/28 06:24:01;;;;;;;2.02;1.45;;;;;;;17.91;73.25;99244.81;1683593;82;21114;-52
2021/08/28 06:26:36;;;;;;;2.17;1.82;;;;;;;17.94;72.93;99245.92;1711609;82;21040;-51
2021/08/28 06:29:05;;;;;;;4.10;1.40;;;;;;;17.93;72.75;99245.06;1712058;82;21037;-52
2021/08/28 06:31:32;;;;;;;1.27;1.17;;;;;;;17.96;72.62;99249.36;1711230;82;21450;-52
2021/08/28 06:33:58;;;;;;;4.83;1.37;;;;;;;18.00;72.71;99246.75;1710883;82;21063;-52
2021/08/28 06:36:25;;;;;;;2.95;0.98;;;;;;;18.06;72.76;99250.29;1714899;81;21104;-52
2021/08/28 06:39:01;;;;;;;1.62;1.35;;;;;;;18.14;72.77;99256.80;1711662;82;22082;-52
2021/08/28 06:41:46;;;;;;;1.70;1.55;;;;;;;18.25;72.59;99257.23;1711612;82;21032;-52
2021/08/28 06:44:32;;;;;;;1.50;1.40;;;;;;;18.38;72.46;99271.48;1715934;82;22307;-52
2021/08/28 06:47:00;;;;;;;1.30;1.10;;;;;;;18.48;72.08;99264.73;1656087;82;21092;-52
2021/08/28 06:49:45;;;;;;;1.75;1.22;;;;;;;18.56;71.85;99269.00;1716486;82;21033;-52
2021/08/28 06:52:30;;;;;;;1.67;1.00;;;;;;;18.62;71.40;99279.42;1709484;82;21080;-52
2021/08/28 06:55:02;;;;;;;1.10;1.00;;;;;;;18.67;71.10;99281.22;1707317;82;21510;-52
2021/08/28 06:57:47;;;;;;;4.53;1.45;;;;;;;18.72;71.03;99283.03;1708186;81;21446;-52
2021/08/28 07:00:24;;;;;;;1.50;1.30;;;;;;;18.78;70.63;99291.18;1714701;82;22183;-51
2021/08/28 07:03:09;;;;;;;1.65;1.10;;;;;;;18.78;70.23;99293.91;1715811;82;21494;-53
2021/08/28 07:05:35;;;;;;;2.35;1.02;;;;;;;18.75;70.09;99289.58;1710244;82;22757;-53
2021/08/28 07:08:04;;;;;;;1.95;1.00;;;;;;;18.74;70.16;99301.48;1708710;82;21056;-52
2021/08/28 07:10:33;;;;;;;2.83;0.75;;;;;;;18.76;69.97;99304.95;1711326;82;21739;-53
2021/08/28 07:13:01;;;;;;;0.95;0.80;;;;;;;18.75;69.50;99299.63;1729757;80;21639;-52
2021/08/28 07:15:30;;;;;;;0.90;0.75;;;;;;;18.76;69.53;99299.49;1710033;80;21093;-53
2021/08/28 07:17:56;;;;;;;1.47;0.70;;;;;;;18.81;69.37;99307.25;1711242;80;21071;-51
2021/08/28 07:20:23;;;;;;;0.70;0.70;;;;;;;18.87;69.19;99312.17;1733008;80;21078;-50
2021/08/28 07:22:50;;;;;;;1.72;0.70;;;;;;;18.94;69.10;99313.34;1735727;80;21497;-52
2021/08/28 07:25:28;;;;;;;1.00;0.70;;;;;;;18.99;68.40;99315.15;1652405;84;21555;-52
2021/08/28 07:27:54;;;;;;;0.78;0.60;;;;;;;19.05;67.58;99311.03;1731833;80;21512;-52
2021/08/28 07:30:28;;;;;;;0.70;0.60;;;;;;;19.12;67.21;99318.52;1704602;80;21056;-51
2021/08/28 07:32:56;;;;;;;0.80;0.60;;;;;;;19.16;67.06;99314.99;1732978;80;21055;-52
2021/08/28 07:35:23;;;;;;;0.80;0.50;;;;;;;19.24;66.61;99316.52;1730976;80;22783;-51
2021/08/28 07:37:49;;;;;;;2.02;0.70;;;;;;;19.30;65.82;99313.77;1735648;80;21556;-51
2021/08/28 07:40:16;;;;;;;2.15;0.60;;;;;;;19.33;65.36;99317.55;1734194;80;21703;-50
2021/08/28 07:42:42;;;;;;;0.60;0.60;;;;;;;19.35;64.89;99323.25;1732471;80;21088;-51
2021/08/28 07:45:11;;;;;;;0.57;0.50;;;;;;;19.35;64.79;99327.34;1701201;82;21073;-51
2021/08/28 07:47:39;;;;;;;1.57;0.60;;;;;;;19.37;64.82;99329.94;1732774;80;21225;-52
2021/08/28 07:50:07;;;;;;;1.05;0.50;;;;;;;19.40;64.51;99333.73;1736119;80;21164;-51
2021/08/28 07:52:33;;;;;;;0.60;0.50;;;;;;;19.43;64.25;99337.05;1734915;80;21023;-51
2021/08/28 07:55:00;;;;;;;0.40;0.40;;;;;;;19.45;64.49;99341.02;1732604;80;21120;-52
2021/08/28 07:57:27;;;;;;;0.30;0.30;;;;;;;19.50;64.38;99344.20;1698809;82;21089;-51
2021/08/28 07:59:53;;;;;;;0.40;0.30;;;;;;;19.55;63.83;99340.58;1733471;80;21774;-51
2021/08/28 08:02:19;;;;;;;0.50;0.42;;;;;;;19.58;63.39;99347.96;1726338;80;21472;-52
2021/08/28 08:04:45;;;;;;;0.30;0.30;;;;;;;19.60;63.24;99338.27;1736555;80;21092;-52
2021/08/28 08:07:26;;;;;;;1.05;0.40;;;;;;;19.62;63.14;99356.25;1734240;80;21047;-53
2021/08/28 08:10:13;;;;;;;0.35;0.30;;;;;;;19.59;62.50;99359.75;1731953;80;21137;-52
2021/08/28 08:12:57;;;;;;;;;;;;;;;19.56;62.58;99355.42;1746630;80;21209;-53
2021/08/28 08:15:43;;;;;;;0.40;0.30;;;;;;;19.52;62.21;99358.09;1710407;81;20457;-51
2021/08/28 08:18:30;;;;;;;0.40;0.40;;;;;;;19.44;62.48;99372.03;1711052;81;22461;-53
2021/08/28 08:21:07;;;;;;;0.55;0.40;;;;;;;19.39;62.15;99368.37;1728550;80;21649;-52
2021/08/28 08:23:53;;;;;;;0.53;0.30;;;;;;;19.34;61.93;99373.36;1654135;84;21100;-53
2021/08/28 08:26:39;;;;;;;0.70;0.40;;;;;;;19.28;62.56;99374.80;1656239;84;21209;-52
2021/08/28 08:29:23;;;;;;;;;;;;;;;19.30;62.62;99377.39;1709179;80;21462;-52
2021/08/28 08:31:53;;;;;;;0.40;0.30;;;;;;;19.33;62.48;99382.55;1741886;80;20498;-53
2021/08/28 08:34:37;;;;;;;0.20;0.20;;;;;;;19.33;62.35;99375.73;1660162;84;21262;-52
2021/08/28 08:37:05;;;;;;;0.30;0.23;;;;;;;19.33;62.27;99370.27;1718913;80;21018;-51
2021/08/28 08:39:32;;;;;;;0.40;0.20;;;;;;;19.31;62.01;99381.81;1723037;80;21142;-52
2021/08/28 08:41:59;;;;;;;0.30;0.30;;;;;;;19.31;62.28;99387.27;1745076;80;21233;-52
2021/08/28 08:44:26;;;;;;;0.40;0.20;;;;;;;19.32;61.93;99389.00;1743536;80;21059;-52
2021/08/28 08:46:52;;;;;;;0.20;0.20;;;;;;;19.34;61.63;99395.20;1745768;80;21095;-52
2021/08/28 08:49:20;;;;;;;0.30;0.30;;;;;;;19.35;61.37;99394.20;1743747;80;21058;-52
2021/08/28 08:51:46;;;;;;;0.40;0.30;;;;;;;19.38;61.27;99398.03;1743189;80;21050;-50
2021/08/28 08:54:13;;;;;;;0.70;0.20;;;;;;;19.40;61.32;99396.00;1746817;80;21085;-51
2021/08/28 08:56:40;;;;;;;0.40;0.20;;;;;;;19.42;61.46;99402.19;1746856;80;21067;-51
2021/08/28 08:59:07;;;;;;;0.40;0.20;;;;;;;19.49;61.30;99403.39;1745102;80;21033;-52
2021/08/28 09:01:34;;;;;;;0.20;0.20;;;;;;;19.54;61.04;99403.86;1747031;80;21090;-52
2021/08/28 09:04:08;;;;;;;;;;;;;;;19.61;60.66;99400.93;1741260;80;21716;-52
2021/08/28 09:06:35;;;;;;;0.33;0.30;;;;;;;19.64;60.64;99403.89;1748975;80;20251;-51
2021/08/28 09:09:01;;;;;;;0.30;0.20;;;;;;;19.65;60.54;99405.09;1744006;80;21080;-52
2021/08/28 09:11:32;;;;;;;0.20;0.20;;;;;;;19.65;60.57;99403.72;1745465;80;21601;-51
2021/08/28 09:14:19;;;;;;;0.20;0.20;;;;;;;19.69;60.78;99393.91;1746847;80;20887;-52
2021/08/28 09:16:46;;;;;;;0.20;0.15;;;;;;;19.74;60.54;99412.08;1747399;80;21539;-52
2021/08/28 09:19:12;;;;;;;0.20;0.20;;;;;;;19.74;60.06;99407.98;1747520;80;21446;-52
2021/08/28 09:21:39;;;;;;;0.30;0.20;;;;;;;19.74;60.07;99412.08;1749029;80;20888;-52
2021/08/28 09:24:10;;;;;;;0.20;0.20;;;;;;;19.79;60.03;99405.72;1748534;80;20886;-52
2021/08/28 09:26:42;;;;;;;0.40;0.30;;;;;;;19.87;60.45;99407.23;1747339;80;20968;-51
2021/08/28 09:29:11;;;;;;;0.40;0.23;;;;;;;20.00;60.26;99410.05;1745749;80;21070;-52
2021/08/28 09:31:49;;;;;;;0.93;0.20;;;;;;;20.14;60.28;99408.79;1745914;80;20934;-51
2021/08/28 09:34:28;;;;;;;0.20;0.20;;;;;;;20.28;60.12;99408.36;1746652;80;20937;-51
2021/08/28 09:37:05;;;;;;;0.50;0.20;;;;;;;20.44;58.93;99403.70;1746114;80;21037;-52
2021/08/28 09:39:45;;;;;;;0.20;0.20;;;;;;;20.52;58.40;99405.20;1746485;80;20971;-52
2021/08/28 09:42:20;;;;;;;0.62;0.23;;;;;;;20.60;58.17;99418.15;1710495;82;21113;-52
2021/08/28 09:44:47;;;;;;;0.25;0.25;;;;;;;20.62;58.71;99414.77;1684501;83;21435;-52
2021/08/28 09:47:20;;;;;;;0.40;0.30;;;;;;;20.63;58.17;99413.77;1677987;83;21430;-52
2021/08/28 09:49:48;;;;;;;0.20;0.20;;;;;;;20.54;58.64;99413.27;1691454;82;21447;-53
2021/08/28 09:52:23;;;;;;;0.40;0.20;;;;;;;20.49;58.71;99423.29;1693225;82;21554;-51
2021/08/28 09:54:51;;;;;;;1.60;0.30;;;;;;;20.48;58.72;99428.39;1689382;82;21189;-52
2021/08/28 09:57:17;;;;;;;0.33;0.28;;;;;;;20.44;58.38;99431.04;1710240;82;21065;-52
2021/08/28 09:59:45;;;;;;;0.50;0.20;;;;;;;20.37;58.06;99429.89;1710596;82;21069;-53
2021/08/28 10:02:17;;;;;;;0.60;0.30;;;;;;;20.27;58.25;99427.13;1708332;82;21439;-52
2021/08/28 10:04:52;;;;;;;0.40;0.20;;;;;;;20.24;58.31;99428.80;1709995;82;22074;-52
2021/08/28 10:07:25;;;;;;;0.20;0.20;;;;;;;20.26;58.54;99429.48;1677061;83;22002;-51
2021/08/28 10:09:57;;;;;;;0.20;0.20;;;;;;;20.30;58.33;99428.72;1708862;82;21473;-52
2021/08/28 10:12:25;;;;;;;;;;;;;;;20.33;58.18;99432.00;1712705;82;21073;-52
2021/08/28 10:14:54;;;;;;;0.30;0.30;;;;;;;20.34;58.50;99436.50;1699188;82;20221;-52
2021/08/28 10:17:22;;;;;;;0.30;0.30;;;;;;;20.29;58.26;99435.19;1699557;82;21575;-52
2021/08/28 10:19:52;;;;;;;0.20;0.20;;;;;;;20.22;58.65;99432.16;1699540;82;22134;-52
2021/08/28 10:22:25;;;;;;;0.45;0.20;;;;;;;20.25;58.79;99435.09;1737878;80;21825;-52
2021/08/28 10:27:24;;;;;;;0.23;0.20;;;;;;;20.35;59.43;99441.47;1790638;78;28738;-51
2021/08/28 10:29:52;;;;;;;0.25;0.20;;;;;;;20.39;58.90;99446.52;1763858;78;21016;-52
2021/08/28 10:32:19;;;;;;;0.20;0.20;;;;;;;20.37;58.37;99441.70;1758686;80;23246;-52
2021/08/28 10:34:46;;;;;;;0.20;0.20;;;;;;;20.39;57.80;99442.92;1746926;80;20868;-51
2021/08/28 10:37:12;;;;;;;0.68;0.20;;;;;;;20.39;57.30;99445.16;1724226;81;20946;-52
2021/08/28 10:39:39;;;;;;;0.25;0.23;;;;;;;20.38;57.71;99450.26;1743090;80;20989;-51
2021/08/28 10:42:06;;;;;;;1.47;0.20;;;;;;;20.43;57.64;99444.84;1715462;81;21438;-52
2021/08/28 10:44:34;;;;;;;0.20;0.20;;;;;;;20.47;58.15;99447.67;1712123;81;21122;-52
2021/08/28 10:47:11;;;;;;;0.20;0.20;;;;;;;20.56;57.03;99442.20;1652738;84;21492;-52
2021/08/28 10:49:44;;;;;;;1.00;0.20;;;;;;;20.58;56.79;99446.17;1680664;83;21359;-51
2021/08/28 10:52:20;;;;;;;0.20;0.20;;;;;;;20.60;56.38;99449.59;1670451;83;21054;-51
2021/08/28 10:55:06;;;;;;;0.20;0.20;;;;;;;20.61;56.16;99455.42;1692521;83;21803;-51
2021/08/28 10:57:33;;;;;;;0.20;0.20;;;;;;;20.65;55.61;99448.17;1666097;83;21125;-53
2021/08/28 11:00:12;;;;;;;0.50;0.20;;;;;;;20.71;55.70;99454.42;1692187;83;21289;-51
2021/08/28 11:02:57;;;;;;;0.20;0.20;;;;;;;20.80;55.79;99458.16;1695525;83;21610;-52
2021/08/28 11:05:31;;;;;;;0.25;0.25;;;;;;;20.85;55.44;99458.56;1708846;81;21250;-52
2021/08/28 11:08:16;;;;;;;0.20;0.20;;;;;;;20.90;55.42;99457.64;1710254;81;21723;-52
2021/08/28 11:10:43;;;;;;;0.20;0.20;;;;;;;20.95;55.33;99459.42;1710988;81;21494;-52
2021/08/28 11:13:09;;;;;;;0.55;0.42;;;;;;;21.02;54.88;99456.45;1693310;82;22336;-52
2021/08/28 11:15:38;;;;;;;1.20;0.28;;;;;;;20.99;54.43;99455.39;1679211;83;21588;-52
2021/08/28 11:18:17;;;;;;;0.20;0.20;;;;;;;20.98;54.28;99453.67;1698254;83;21022;-51
2021/08/28 11:20:48;;;;;;;0.28;0.28;;;;;;;20.97;54.41;99451.94;1690393;83;21131;-52
2021/08/28 11:23:17;;;;;;;1.00;0.30;;;;;;;20.99;54.28;99444.95;1712455;81;21193;-52
2021/08/28 11:25:47;;;;;;;0.40;0.40;;;;;;;21.00;54.05;99453.02;1692835;83;21344;-52
2021/08/28 11:28:14;;;;;;;0.30;0.20;;;;;;;21.02;53.85;99456.95;1739204;80;21036;-52
2021/08/28 11:30:52;;;;;;;0.20;0.20;;;;;;;21.02;53.99;99455.08;1741598;80;21133;-52
2021/08/28 11:33:35;;;;;;;0.23;0.20;;;;;;;21.04;53.97;99451.70;1741646;80;21037;-51
2021/08/28 11:36:10;;;;;;;0.20;0.20;;;;;;;21.08;53.94;99452.28;1739776;80;21488;-52
2021/08/28 11:38:49;;;;;;;0.30;0.30;;;;;;;21.13;54.30;99452.19;1731463;80;21109;-51
2021/08/28 11:41:26;;;;;;;0.40;0.30;;;;;;;21.20;53.87;99453.84;1739368;80;21114;-52
2021/08/28 11:43:54;;;;;;;0.20;0.20;;;;;;;21.26;53.78;99461.48;1738986;80;21116;-51
2021/08/28 11:46:27;;;;;;;0.20;0.20;;;;;;;21.31;53.07;99463.77;1740582;80;21025;-52
2021/08/28 11:48:54;;;;;;;0.57;0.30;;;;;;;21.34;52.85;99459.37;1741095;80;21546;-52
2021/08/28 11:51:26;;;;;;;0.40;0.20;;;;;;;21.37;53.00;99448.97;1738396;80;21499;-53